Time;durP1;ratioP1;P1;durP2;ratioP2;P2;SDS_P1;SDS_P2;PMS_P1;PMS_P2;Temp;Humidity;BMP_temperature;BMP_pressure;BME280_temperature;BME280_humidity;BME280_pressure;Samples;Min_cycle;Max_cycle;Signal;HPM_P1;HPM_P2
2023/01/23 00:01:16;;;;;;;14.60;7.50;;;4.00;99.90;;;;;;5115087;27;20244;-81
2023/01/23 00:03:43;;;;;;;17.23;7.03;;;4.00;99.90;;;;;;5112748;27;20168;-81
2023/01/23 00:06:15;;;;;;;21.48;7.25;;;4.00;99.90;;;;;;5108006;27;20200;-80
2023/01/23 00:08:43;;;;;;;16.02;6.97;;;4.00;99.90;;;;;;5111536;27;20222;-79
2023/01/23 00:11:19;;;;;;;13.32;7.05;;;4.00;99.90;;;;;;5111839;27;20173;-79
2023/01/23 00:13:45;;;;;;;14.50;6.50;;;4.00;99.90;;;;;;5114554;27;20196;-82
2023/01/23 00:16:14;;;;;;;15.13;6.85;;;4.00;99.90;;;;;;5108141;27;20189;-83
2023/01/23 00:18:40;;;;;;;15.50;6.47;;;4.00;99.90;;;;;;5110581;27;20179;-83
2023/01/23 00:21:09;;;;;;;12.35;6.40;;;4.00;99.90;;;;;;5110635;27;20196;-78
2023/01/23 00:23:36;;;;;;;15.60;6.75;;;4.00;99.90;;;;;;5109391;27;20192;-80
2023/01/23 00:26:07;;;;;;;16.48;7.13;;;4.00;99.90;;;;;;5109909;27;20180;-82
2023/01/23 00:28:33;;;;;;;13.73;6.75;;;4.00;99.90;;;;;;5111281;27;20168;-82
2023/01/23 00:31:06;;;;;;;20.10;7.13;;;4.00;99.90;;;;;;5102679;27;20180;-78
2023/01/23 00:33:32;;;;;;;16.08;6.45;;;4.00;99.90;;;;;;5106450;27;20220;-80
2023/01/23 00:35:58;;;;;;;13.70;5.90;;;4.00;99.90;;;;;;5110896;27;20204;-78
2023/01/23 00:38:24;;;;;;;17.52;6.97;;;4.00;99.90;;;;;;5096747;27;20181;-82
2023/01/23 00:40:50;;;;;;;14.82;6.72;;;4.00;99.90;;;;;;5108021;27;20324;-79
2023/01/23 00:43:16;;;;;;;12.30;6.30;;;4.00;99.90;;;;;;5107979;27;20185;-78
2023/01/23 00:45:42;;;;;;;12.35;6.68;;;4.00;99.90;;;;;;5111260;27;20974;-78
2023/01/23 00:48:08;;;;;;;10.20;6.00;;;4.00;99.90;;;;;;5079111;27;20708;-79
2023/01/23 00:50:33;;;;;;;14.13;6.35;;;4.00;99.90;;;;;;5091523;27;20264;-81
2023/01/23 00:52:59;;;;;;;15.68;6.60;;;4.00;99.90;;;;;;5090417;27;20219;-80
2023/01/23 00:55:25;;;;;;;18.08;6.72;;;3.90;99.90;;;;;;5099977;27;20215;-79
2023/01/23 00:57:51;;;;;;;18.00;7.30;;;4.00;99.90;;;;;;5110872;27;20188;-78
2023/01/23 01:00:17;;;;;;;16.50;6.60;;;4.00;99.90;;;;;;5111934;27;20307;-78
2023/01/23 01:02:42;;;;;;;16.08;6.75;;;4.00;99.90;;;;;;5111931;27;20196;-79
2023/01/23 01:05:08;;;;;;;14.07;6.50;;;4.00;99.90;;;;;;5073694;27;21198;-78
2023/01/23 01:07:34;;;;;;;12.48;6.30;;;4.00;99.90;;;;;;5107142;27;20323;-79
2023/01/23 01:10:00;;;;;;;14.20;6.45;;;4.00;99.90;;;;;;5108567;27;21158;-82
2023/01/23 01:12:26;;;;;;;17.20;6.38;;;4.00;99.90;;;;;;5109308;27;20987;-79
2023/01/23 01:14:51;;;;;;;11.20;5.63;;;4.00;99.90;;;;;;5110506;27;20220;-79
2023/01/23 01:17:17;;;;;;;13.77;6.70;;;3.90;99.90;;;;;;5106460;27;20199;-83
2023/01/23 01:19:43;;;;;;;14.38;6.20;;;3.90;99.90;;;;;;5108532;27;20187;-79
2023/01/23 01:22:09;;;;;;;14.20;6.57;;;3.90;99.90;;;;;;5107129;27;20292;-79
2023/01/23 01:24:35;;;;;;;14.20;6.75;;;3.90;99.90;;;;;;5111040;27;20184;-82
2023/01/23 01:27:00;;;;;;;13.25;6.20;;;3.90;99.90;;;;;;5095082;27;20245;-82
2023/01/23 01:29:26;;;;;;;11.15;6.15;;;3.90;99.90;;;;;;5108923;27;20603;-81
2023/01/23 01:31:52;;;;;;;12.25;6.50;;;3.90;99.90;;;;;;5108747;27;20570;-83
2023/01/23 01:34:18;;;;;;;14.82;7.20;;;3.90;99.90;;;;;;5113896;27;20375;-82
2023/01/23 01:36:44;;;;;;;11.70;6.25;;;3.90;99.90;;;;;;5108355;27;20224;-81
2023/01/23 01:39:09;;;;;;;14.70;6.30;;;4.00;99.90;;;;;;5109104;27;20186;-82
2023/01/23 01:41:35;;;;;;;13.45;6.18;;;4.00;99.90;;;;;;5076513;27;20193;-82
2023/01/23 01:44:01;;;;;;;15.77;6.80;;;4.00;99.90;;;;;;5110264;27;20773;-80
2023/01/23 01:46:28;;;;;;;14.85;6.60;;;4.00;99.90;;;;;;5107066;27;20290;-79
2023/01/23 01:49:08;;;;;;;14.35;6.18;;;4.00;99.90;;;;;;5109987;27;20189;-78
2023/01/23 01:51:41;;;;;;;13.10;6.63;;;4.00;99.90;;;;;;5094745;27;20300;-81
2023/01/23 01:54:10;;;;;;;12.93;6.88;;;4.00;99.90;;;;;;5109732;27;20232;-81
2023/01/23 01:56:41;;;;;;;16.05;6.97;;;4.00;99.90;;;;;;5109990;27;20441;-81
2023/01/23 01:59:08;;;;;;;16.88;7.28;;;4.00;99.90;;;;;;5095870;27;20229;-82
2023/01/23 02:01:34;;;;;;;13.70;6.80;;;4.00;99.90;;;;;;5108485;27;20188;-79
2023/01/23 02:04:03;;;;;;;11.70;6.10;;;4.00;99.90;;;;;;5112107;27;20192;-78
2023/01/23 02:06:29;;;;;;;14.30;6.55;;;3.90;99.90;;;;;;5104693;27;20207;-79
2023/01/23 02:09:09;;;;;;;14.52;7.32;;;3.90;99.90;;;;;;5107799;27;20181;-79
2023/01/23 02:11:36;;;;;;;13.15;7.40;;;3.90;99.90;;;;;;5126488;27;20181;-79
2023/01/23 02:14:01;;;;;;;15.20;8.10;;;4.00;99.90;;;;;;5108385;27;20225;-79
2023/01/23 02:16:32;;;;;;;18.30;7.63;;;4.00;99.90;;;;;;5109092;27;20187;-80
2023/01/23 02:19:02;;;;;;;16.70;7.70;;;4.00;99.90;;;;;;5109897;27;20203;-82
2023/01/23 02:21:29;;;;;;;14.90;7.00;;;4.00;99.90;;;;;;5111006;27;20636;-79
2023/01/23 02:23:55;;;;;;;13.13;7.05;;;4.00;99.90;;;;;;5108371;27;20244;-80
2023/01/23 02:26:49;;;;;;;13.45;7.18;;;3.90;99.90;;;;;;5090871;27;20498;-81
2023/01/23 02:29:17;;;;;;;12.60;7.30;;;4.00;99.90;;;;;;5103211;27;20235;-78
2023/01/23 02:31:51;;;;;;;13.13;6.85;;;4.00;99.90;;;;;;5074655;27;20180;-83
2023/01/23 02:34:21;;;;;;;20.15;7.15;;;3.90;99.90;;;;;;5107815;27;20415;-80
2023/01/23 02:36:47;;;;;;;12.57;7.25;;;4.00;99.90;;;;;;5104569;27;20268;-78
2023/01/23 02:39:16;;;;;;;12.02;6.72;;;4.00;99.90;;;;;;5106437;27;20319;-80
2023/01/23 02:41:47;;;;;;;17.30;6.88;;;4.00;99.90;;;;;;5105377;27;20199;-78
2023/01/23 02:44:33;;;;;;;15.32;7.45;;;3.90;99.90;;;;;;5109189;27;20184;-79
2023/01/23 02:47:06;;;;;;;16.00;7.22;;;3.90;99.90;;;;;;5109391;27;20184;-80
2023/01/23 02:49:32;;;;;;;15.32;7.47;;;3.90;99.90;;;;;;5110333;27;20197;-80
2023/01/23 02:52:02;;;;;;;14.40;6.72;;;3.90;99.90;;;;;;5089529;28;20217;-82
2023/01/23 02:54:28;;;;;;;15.63;7.15;;;3.90;99.90;;;;;;5108269;28;20345;-81
2023/01/23 02:56:55;;;;;;;13.65;7.53;;;3.90;99.90;;;;;;5105956;28;20193;-80
2023/01/23 03:02:07;;;;;;;17.00;6.95;;;3.90;99.90;;;;;;5108962;28;20180;-79
2023/01/23 03:04:33;;;;;;;20.17;7.85;;;3.90;99.90;;;;;;5110850;27;20184;-79
2023/01/23 03:06:59;;;;;;;12.40;6.93;;;3.90;99.90;;;;;;5090140;28;20220;-82
2023/01/23 03:09:25;;;;;;;17.50;7.45;;;3.90;99.90;;;;;;5109375;28;20851;-80
2023/01/23 03:11:51;;;;;;;17.10;8.43;;;3.90;99.90;;;;;;5110477;28;20181;-81
2023/01/23 03:14:19;;;;;;;15.20;7.78;;;3.80;99.90;;;;;;5106710;27;20212;-80
2023/01/23 03:16:50;;;;;;;17.25;7.95;;;3.80;99.90;;;;;;5092918;28;20185;-80
2023/01/23 03:19:18;;;;;;;13.27;7.88;;;3.90;99.90;;;;;;5110469;27;20227;-80
2023/01/23 03:21:44;;;;;;;13.18;7.55;;;3.90;99.90;;;;;;5104657;27;20181;-83
2023/01/23 03:24:12;;;;;;;12.35;7.90;;;4.00;99.90;;;;;;5112495;27;20197;-80
2023/01/23 03:26:43;;;;;;;18.30;7.95;;;3.90;99.90;;;;;;5096510;27;20272;-82
2023/01/23 03:32:11;;;;;;;15.02;7.10;;;4.00;99.90;;;;;;5112576;27;20628;-82
2023/01/23 03:34:37;;;;;;;15.98;8.27;;;3.90;99.90;;;;;;5106977;27;20295;-80
2023/01/23 03:37:04;;;;;;;20.92;7.55;;;3.90;99.90;;;;;;5118248;27;20189;-82
2023/01/23 03:42:18;;;;;;;12.90;7.45;;;3.90;99.90;;;;;;5098459;27;20350;-80
2023/01/23 03:44:46;;;;;;;16.25;7.82;;;3.90;99.90;;;;;;5113371;27;20632;-79
2023/01/23 03:47:11;;;;;;;12.48;7.97;;;3.90;99.90;;;;;;5111785;27;20851;-80
2023/01/23 03:49:38;;;;;;;14.07;7.72;;;4.00;99.90;;;;;;5113586;27;20228;-79
2023/01/23 03:52:05;;;;;;;15.15;7.90;;;3.90;99.90;;;;;;5097484;27;20271;-80
2023/01/23 03:54:31;;;;;;;12.65;7.78;;;3.90;99.90;;;;;;5084592;27;20690;-80
2023/01/23 03:56:57;;;;;;;12.65;7.65;;;3.90;99.90;;;;;;5115209;27;20181;-80
2023/01/23 03:59:48;;;;;;;13.77;7.85;;;3.90;99.90;;;;;;5112001;27;20224;-81
2023/01/23 04:02:17;;;;;;;15.23;8.13;;;4.00;99.90;;;;;;5100211;27;22347;-80
2023/01/23 04:04:44;;;;;;;15.82;7.50;;;4.00;99.90;;;;;;5099716;27;20254;-83
2023/01/23 04:07:09;;;;;;;15.40;7.40;;;4.00;99.90;;;;;;5107902;27;20187;-79
2023/01/23 04:09:37;;;;;;;14.77;6.97;;;4.00;99.90;;;;;;5101273;27;20196;-80
2023/01/23 04:12:03;;;;;;;12.90;7.30;;;4.00;99.90;;;;;;5098592;27;20195;-82
2023/01/23 04:14:36;;;;;;;11.30;6.75;;;4.00;99.90;;;;;;5096422;27;20240;-79
2023/01/23 04:17:06;;;;;;;13.98;6.88;;;4.00;99.90;;;;;;5111901;27;20208;-80
2023/01/23 04:19:33;;;;;;;13.43;6.88;;;4.00;99.90;;;;;;5111457;27;20184;-79
2023/01/23 04:22:00;;;;;;;13.02;7.32;;;4.00;99.90;;;;;;5111359;27;20636;-78
2023/01/23 04:24:29;;;;;;;16.85;7.03;;;3.90;99.90;;;;;;5097944;27;20577;-78
2023/01/23 04:26:55;;;;;;;12.68;6.93;;;3.90;99.90;;;;;;5117034;27;20180;-79
2023/01/23 04:29:21;;;;;;;14.02;7.10;;;3.90;99.90;;;;;;5094276;27;20304;-80
2023/01/23 04:31:47;;;;;;;12.02;6.97;;;3.90;99.90;;;;;;5109065;27;20191;-81
2023/01/23 04:34:13;;;;;;;12.77;7.38;;;3.90;99.90;;;;;;5110520;27;20220;-79
2023/01/23 04:36:41;;;;;;;16.17;7.03;;;3.90;99.90;;;;;;5111744;27;20867;-79
2023/01/23 04:39:07;;;;;;;16.30;7.40;;;3.90;99.90;;;;;;5098379;27;20188;-81
2023/01/23 04:41:34;;;;;;;11.23;6.72;;;3.90;99.90;;;;;;5094937;27;20183;-81
2023/01/23 04:44:21;;;;;;;15.95;7.30;;;3.90;99.90;;;;;;5110637;27;20383;-80
2023/01/23 04:47:08;;;;;;;12.50;6.97;;;3.90;99.90;;;;;;5101048;27;20204;-81
2023/01/23 04:49:34;;;;;;;12.50;7.20;;;3.90;99.90;;;;;;5115053;27;20184;-80
2023/01/23 04:51:59;;;;;;;13.18;7.07;;;3.90;99.90;;;;;;5079230;27;20282;-79
2023/01/23 04:54:28;;;;;;;14.15;6.78;;;3.90;99.90;;;;;;5097863;27;20208;-83
2023/01/23 04:56:53;;;;;;;13.93;7.60;;;3.90;99.90;;;;;;5093562;27;20916;-80
2023/01/23 04:59:20;;;;;;;13.15;6.97;;;3.90;99.90;;;;;;5114841;27;20228;-80
2023/01/23 05:01:46;;;;;;;15.77;7.00;;;3.90;99.90;;;;;;5080597;27;20177;-80
2023/01/23 05:04:13;;;;;;;17.65;7.50;;;3.90;99.90;;;;;;5099483;27;20245;-81
2023/01/23 05:06:39;;;;;;;11.75;7.40;;;3.90;99.90;;;;;;5096676;27;20698;-78
2023/01/23 05:09:06;;;;;;;12.80;7.75;;;3.90;99.90;;;;;;5112839;27;20224;-82
2023/01/23 05:11:38;;;;;;;12.60;7.53;;;3.90;99.90;;;;;;5112011;27;20378;-79
2023/01/23 05:14:04;;;;;;;17.27;8.07;;;3.90;99.90;;;;;;5094504;27;20292;-79
2023/01/23 05:16:32;;;;;;;14.75;7.72;;;3.90;99.90;;;;;;5111437;27;20616;-81
2023/01/23 05:19:20;;;;;;;16.77;7.72;;;3.90;99.90;;;;;;5088407;27;20660;-82
2023/01/23 05:21:46;;;;;;;15.90;8.23;;;3.90;99.90;;;;;;5115645;27;20588;-79
2023/01/23 05:24:16;;;;;;;18.85;8.90;;;3.90;99.90;;;;;;5118554;27;20185;-79
2023/01/23 05:26:43;;;;;;;18.52;8.75;;;3.90;99.90;;;;;;5112025;27;20770;-80
2023/01/23 05:29:09;;;;;;;16.75;8.63;;;3.80;99.90;;;;;;5110836;27;20185;-80
2023/01/23 05:31:39;;;;;;;18.98;9.02;;;3.90;99.90;;;;;;5109678;27;20204;-81
2023/01/23 05:34:40;;;;;;;16.05;8.88;;;4.00;99.90;;;;;;5106925;27;20232;-81
2023/01/23 05:37:15;;;;;;;16.85;8.93;;;3.80;99.90;;;;;;5096801;27;20184;-78
2023/01/23 05:39:45;;;;;;;22.67;9.13;;;3.90;99.90;;;;;;5110224;27;20185;-78
2023/01/23 05:42:11;;;;;;;15.98;8.85;;;3.90;99.90;;;;;;5110082;27;20874;-81
2023/01/23 05:44:55;;;;;;;15.13;8.80;;;3.90;99.90;;;;;;5095963;27;20184;-83
2023/01/23 05:47:29;;;;;;;20.15;8.65;;;3.90;99.90;;;;;;5107041;27;20188;-79
2023/01/23 05:49:56;;;;;;;15.43;8.68;;;3.90;99.90;;;;;;5106060;27;20566;-83
2023/01/23 05:52:26;;;;;;;14.70;8.23;;;3.90;99.90;;;;;;5092099;27;20235;-78
2023/01/23 05:54:52;;;;;;;17.70;8.82;;;3.90;99.90;;;;;;5111649;27;20208;-80
2023/01/23 05:57:18;;;;;;;17.80;8.30;;;3.90;99.90;;;;;;5096666;27;20195;-80
2023/01/23 06:00:22;;;;;;;18.02;8.23;;;3.90;99.90;;;;;;5108370;27;20719;-81
2023/01/23 06:03:07;;;;;;;13.13;8.15;;;3.90;99.90;;;;;;5109862;27;20564;-80
2023/01/23 06:05:46;;;;;;;15.73;8.75;;;3.90;99.90;;;;;;5107911;27;20233;-79
2023/01/23 06:08:17;;;;;;;16.35;8.15;;;3.90;99.90;;;;;;5099030;27;20276;-78
2023/01/23 06:10:43;;;;;;;15.05;8.38;;;3.80;99.90;;;;;;5077682;27;20187;-78
2023/01/23 06:13:09;;;;;;;13.07;8.10;;;3.80;99.90;;;;;;5095141;27;20232;-82
2023/01/23 06:15:36;;;;;;;16.58;8.77;;;3.90;99.90;;;;;;5095488;27;20203;-80
2023/01/23 06:18:07;;;;;;;14.57;8.38;;;3.90;99.90;;;;;;5097089;27;20903;-82
2023/01/23 06:20:33;;;;;;;15.35;8.90;;;3.80;99.90;;;;;;5113798;27;21439;-80
2023/01/23 06:23:00;;;;;;;14.98;8.93;;;3.80;99.90;;;;;;5090291;27;20355;-80
2023/01/23 06:25:26;;;;;;;18.63;9.30;;;3.80;99.90;;;;;;5094335;27;20196;-79
2023/01/23 06:27:54;;;;;;;13.38;8.52;;;3.80;99.90;;;;;;5093278;27;20615;-80
2023/01/23 06:30:23;;;;;;;16.30;8.93;;;3.80;99.90;;;;;;5097682;27;20211;-83
2023/01/23 06:32:49;;;;;;;15.30;9.07;;;3.80;99.90;;;;;;5106607;27;20184;-80
2023/01/23 06:35:19;;;;;;;17.65;9.55;;;3.80;99.90;;;;;;5084998;27;20176;-81
2023/01/23 06:37:45;;;;;;;17.48;9.93;;;3.80;99.90;;;;;;5076032;27;20192;-80
2023/01/23 06:40:16;;;;;;;16.77;9.43;;;3.80;99.90;;;;;;5096046;27;20183;-82
2023/01/23 06:42:54;;;;;;;20.42;10.40;;;3.80;99.90;;;;;;5096117;28;20172;-82
2023/01/23 06:45:20;;;;;;;19.50;10.32;;;3.80;99.90;;;;;;5131691;27;20172;-81
2023/01/23 06:47:45;;;;;;;18.42;10.32;;;3.80;99.90;;;;;;5079570;28;20184;-79
2023/01/23 06:50:11;;;;;;;16.77;9.73;;;3.80;99.90;;;;;;5112352;28;20184;-78
2023/01/23 06:52:37;;;;;;;15.82;9.93;;;3.70;99.90;;;;;;5090124;28;20188;-80
2023/01/23 06:55:05;;;;;;;16.75;9.65;;;3.70;99.90;;;;;;5109847;27;20269;-79
2023/01/23 06:57:33;;;;;;;18.98;10.50;;;3.80;99.90;;;;;;5099233;27;22287;-78
2023/01/23 06:59:59;;;;;;;22.05;10.18;;;3.70;99.90;;;;;;5098956;27;21407;-77
2023/01/23 07:02:25;;;;;;;19.23;10.05;;;3.70;99.90;;;;;;5102546;27;20241;-78
2023/01/23 07:04:51;;;;;;;25.08;10.88;;;3.70;99.90;;;;;;5119090;27;20279;-79
2023/01/23 07:07:17;;;;;;;16.98;10.13;;;3.70;99.90;;;;;;5103209;27;20187;-81
2023/01/23 07:09:46;;;;;;;17.55;10.63;;;3.70;99.90;;;;;;5099928;27;20377;-81
2023/01/23 07:12:16;;;;;;;19.50;10.27;;;3.70;99.90;;;;;;5113002;27;20197;-80
2023/01/23 07:14:43;;;;;;;20.35;10.55;;;3.70;99.90;;;;;;5107601;27;20251;-77
2023/01/23 07:17:11;;;;;;;21.65;11.07;;;3.70;99.90;;;;;;5114270;27;20215;-80
2023/01/23 07:19:37;;;;;;;20.77;11.45;;;3.70;99.90;;;;;;5103211;27;20275;-78
2023/01/23 07:22:06;;;;;;;19.35;10.88;;;3.70;99.90;;;;;;5104415;27;20648;-77
2023/01/23 07:24:32;;;;;;;20.23;10.82;;;3.70;99.90;;;;;;5118328;27;20256;-78
2023/01/23 07:26:58;;;;;;;23.00;12.18;;;3.70;99.90;;;;;;5114216;27;20184;-80
2023/01/23 07:29:24;;;;;;;24.30;10.90;;;3.70;99.90;;;;;;5100450;27;20644;-78
2023/01/23 07:31:49;;;;;;;23.95;11.88;;;3.70;99.90;;;;;;5115565;27;20301;-78
2023/01/23 07:34:15;;;;;;;18.23;11.68;;;3.70;99.90;;;;;;5114008;27;20844;-80
2023/01/23 07:36:41;;;;;;;22.65;11.65;;;3.70;99.90;;;;;;5101523;27;20203;-80
2023/01/23 07:39:08;;;;;;;21.90;11.77;;;3.60;99.90;;;;;;5118036;27;20177;-80
2023/01/23 07:41:33;;;;;;;22.80;11.95;;;3.70;99.90;;;;;;5119796;27;20640;-80
2023/01/23 07:44:02;;;;;;;22.65;11.65;;;3.70;99.90;;;;;;5116135;27;20192;-80
2023/01/23 07:46:27;;;;;;;18.67;11.40;;;3.70;99.90;;;;;;5102648;27;20260;-79
2023/01/23 07:48:55;;;;;;;23.70;12.52;;;3.70;99.90;;;;;;5121066;27;20211;-84
2023/01/23 07:51:20;;;;;;;21.85;11.68;;;3.70;99.90;;;;;;5116029;27;20188;-80
2023/01/23 07:53:46;;;;;;;21.88;11.93;;;3.80;99.90;;;;;;5118173;27;20575;-82
2023/01/23 07:56:12;;;;;;;21.10;11.75;;;3.70;99.90;;;;;;5101462;27;20196;-80
2023/01/23 07:58:38;;;;;;;22.73;11.95;;;3.70;99.90;;;;;;5116196;27;20258;-79
2023/01/23 08:01:10;;;;;;;20.98;11.13;;;3.70;99.90;;;;;;5115206;27;20307;-83
2023/01/23 08:03:36;;;;;;;18.13;11.20;;;3.70;99.90;;;;;;5114856;27;20556;-79
2023/01/23 08:06:02;;;;;;;23.63;12.15;;;3.70;99.90;;;;;;5118586;27;20187;-80
2023/01/23 08:08:29;;;;;;;21.15;11.50;;;3.70;99.90;;;;;;5113489;27;20195;-80
2023/01/23 08:10:55;;;;;;;23.40;11.35;;;3.70;99.90;;;;;;5115666;27;20237;-79
2023/01/23 08:13:21;;;;;;;20.38;10.95;;;3.70;99.90;;;;;;5114659;27;20216;-79
2023/01/23 08:15:47;;;;;;;21.05;10.38;;;3.70;99.90;;;;;;5111893;27;20189;-80
2023/01/23 08:18:13;;;;;;;17.98;10.13;;;3.70;99.90;;;;;;5113863;27;20285;-81
2023/01/23 08:20:38;;;;;;;16.55;9.75;;;3.70;99.90;;;;;;5083913;27;20703;-80
2023/01/23 08:23:04;;;;;;;18.65;9.75;;;3.80;99.90;;;;;;5113927;27;20193;-82
2023/01/23 08:25:30;;;;;;;15.65;9.20;;;3.80;99.90;;;;;;5116256;27;20180;-80
2023/01/23 08:27:56;;;;;;;15.88;9.43;;;3.80;99.90;;;;;;5122462;27;20181;-79
2023/01/23 08:30:22;;;;;;;15.63;10.13;;;3.80;99.90;;;;;;5115775;27;20180;-83
2023/01/23 08:32:48;;;;;;;15.32;8.85;;;3.80;99.90;;;;;;5115883;27;20182;-82
2023/01/23 08:35:14;;;;;;;13.82;8.65;;;3.80;99.90;;;;;;5117090;27;20220;-80
2023/01/23 08:37:41;;;;;;;12.68;7.75;;;3.80;99.90;;;;;;5118183;27;20203;-79
2023/01/23 08:40:07;;;;;;;13.55;8.27;;;3.80;99.90;;;;;;5100348;27;20221;-82
2023/01/23 08:42:33;;;;;;;14.20;7.80;;;3.80;99.90;;;;;;5133354;27;20292;-83
2023/01/23 08:44:59;;;;;;;11.27;7.20;;;3.80;99.90;;;;;;5114372;27;20636;-81
2023/01/23 08:47:25;;;;;;;13.93;8.13;;;3.80;99.90;;;;;;5111902;27;20796;-80
2023/01/23 08:49:50;;;;;;;12.43;7.30;;;3.90;99.90;;;;;;5101170;27;20587;-79
2023/01/23 08:52:16;;;;;;;13.20;8.18;;;3.90;99.90;;;;;;5111762;27;20200;-82
2023/01/23 08:54:42;;;;;;;12.57;7.78;;;3.90;99.90;;;;;;5111966;27;20565;-81
2023/01/23 08:57:08;;;;;;;12.98;8.15;;;4.00;99.90;;;;;;5112650;27;20197;-79
2023/01/23 08:59:34;;;;;;;16.70;7.75;;;3.90;99.90;;;;;;5117002;27;20288;-79
2023/01/23 09:01:59;;;;;;;14.38;7.53;;;4.00;99.90;;;;;;5096172;27;20706;-80
2023/01/23 09:04:25;;;;;;;12.82;7.20;;;4.00;99.90;;;;;;5112307;27;20280;-80
2023/01/23 09:06:51;;;;;;;12.27;7.22;;;4.00;99.90;;;;;;5111318;27;20185;-80
2023/01/23 09:09:17;;;;;;;10.48;6.63;;;4.00;99.90;;;;;;5111713;27;20486;-79
2023/01/23 09:11:44;;;;;;;12.48;6.70;;;4.00;99.90;;;;;;5092993;27;20271;-80
2023/01/23 09:14:10;;;;;;;9.05;6.38;;;4.00;99.90;;;;;;5111286;27;20228;-79
2023/01/23 09:16:36;;;;;;;10.57;6.35;;;4.00;99.90;;;;;;5095574;27;20184;-80
2023/01/23 09:19:02;;;;;;;9.60;6.63;;;4.10;99.90;;;;;;5099556;27;20212;-79
2023/01/23 09:21:28;;;;;;;10.07;6.70;;;4.10;99.90;;;;;;5113646;27;20689;-79
2023/01/23 09:23:56;;;;;;;9.63;7.07;;;4.10;99.90;;;;;;5110795;27;20287;-81
2023/01/23 09:26:22;;;;;;;10.98;6.68;;;4.10;99.90;;;;;;5109005;27;20228;-81
2023/01/23 09:28:48;;;;;;;9.23;6.50;;;4.10;99.90;;;;;;5081964;27;20743;-79
2023/01/23 09:31:14;;;;;;;9.73;6.68;;;4.10;99.90;;;;;;5109639;27;22330;-82
2023/01/23 09:33:40;;;;;;;9.32;6.40;;;4.10;99.90;;;;;;5112788;27;20219;-81
2023/01/23 09:36:06;;;;;;;10.65;6.55;;;4.10;99.90;;;;;;5113233;27;20184;-79
2023/01/23 09:38:32;;;;;;;13.57;6.85;;;4.10;99.90;;;;;;5115928;27;20607;-80
2023/01/23 09:41:00;;;;;;;9.25;6.38;;;4.10;99.90;;;;;;5111321;27;20192;-80
2023/01/23 09:43:34;;;;;;;17.63;7.07;;;4.10;99.90;;;;;;5111536;27;20205;-80
2023/01/23 09:46:12;;;;;;;10.57;7.05;;;4.10;99.90;;;;;;5112013;27;20177;-80
2023/01/23 09:49:04;;;;;;;11.20;7.07;;;4.20;99.90;;;;;;5115137;27;20180;-82
2023/01/23 09:51:36;;;;;;;11.35;7.30;;;4.20;99.90;;;;;;5110861;27;20512;-82
2023/01/23 09:54:22;;;;;;;10.65;8.00;;;4.20;99.90;;;;;;5111193;27;20224;-80
2023/01/23 09:56:50;;;;;;;11.48;7.45;;;4.20;99.90;;;;;;5112779;27;20206;-79
2023/01/23 09:59:39;;;;;;;15.23;7.72;;;4.30;99.90;;;;;;5115445;27;20242;-82
2023/01/23 10:02:18;;;;;;;14.25;8.82;;;4.30;99.90;;;;;;5112531;27;20229;-81
2023/01/23 10:04:46;;;;;;;13.50;8.75;;;4.30;99.90;;;;;;5113818;27;20180;-82
2023/01/23 10:07:27;;;;;;;14.90;9.13;;;4.30;99.90;;;;;;5133326;27;20192;-79
2023/01/23 10:10:05;;;;;;;16.00;9.65;;;4.40;99.90;;;;;;5115993;27;20314;-80
2023/01/23 10:12:57;;;;;;;14.45;9.88;;;4.40;99.90;;;;;;5115208;27;20201;-78
2023/01/23 10:15:41;;;;;;;15.90;9.30;;;4.40;99.90;;;;;;5096209;27;20196;-79
2023/01/23 10:18:29;;;;;;;15.38;8.45;;;4.40;99.90;;;;;;5108520;27;20172;-79
2023/01/23 10:21:04;;;;;;;18.13;8.85;;;4.40;99.90;;;;;;5112099;27;20180;-80
2023/01/23 10:23:45;;;;;;;14.15;8.70;;;4.40;99.90;;;;;;5116959;27;20197;-80
2023/01/23 10:26:22;;;;;;;14.55;8.95;;;4.40;99.90;;;;;;5108249;27;20611;-82
2023/01/23 10:28:52;;;;;;;15.25;9.60;;;4.40;99.90;;;;;;5098537;27;20237;-80
2023/01/23 10:31:42;;;;;;;25.52;15.18;;;4.40;99.90;;;;;;5125155;27;20539;-83
2023/01/23 10:34:35;;;;;;;21.15;12.63;;;4.50;99.90;;;;;;5132201;27;20702;-78
2023/01/23 10:37:06;;;;;;;22.77;12.85;;;4.40;99.90;;;;;;5104706;27;20573;-79
2023/01/23 10:39:37;;;;;;;19.65;13.60;;;4.50;99.90;;;;;;5111489;27;20207;-79
2023/01/23 10:42:09;;;;;;;17.35;12.63;;;4.50;99.90;;;;;;5110432;27;20196;-82
2023/01/23 10:44:35;;;;;;;18.98;12.70;;;4.50;99.90;;;;;;5109692;27;20204;-81
2023/01/23 10:47:05;;;;;;;21.92;12.55;;;4.50;99.90;;;;;;5098867;27;21007;-79
2023/01/23 10:49:36;;;;;;;21.42;12.95;;;4.50;99.90;;;;;;5111125;27;20191;-77
2023/01/23 10:52:03;;;;;;;17.95;11.95;;;4.50;99.90;;;;;;5110199;27;20434;-81
2023/01/23 10:54:30;;;;;;;17.90;11.55;;;4.60;99.90;;;;;;5110002;27;20301;-82
2023/01/23 10:56:57;;;;;;;18.70;11.30;;;4.60;99.90;;;;;;5117052;27;20203;-82
2023/01/23 10:59:33;;;;;;;17.27;10.77;;;4.60;99.90;;;;;;5115456;28;20644;-81
2023/01/23 11:02:01;;;;;;;19.85;11.63;;;4.60;99.90;;;;;;5112031;28;20279;-77
2023/01/23 11:04:30;;;;;;;18.20;11.10;;;4.60;99.90;;;;;;5111187;28;20184;-84
2023/01/23 11:07:15;;;;;;;18.73;11.75;;;4.60;99.90;;;;;;5113004;28;20180;-79
2023/01/23 11:09:54;;;;;;;18.70;11.38;;;4.60;99.90;;;;;;5112154;28;20324;-82
2023/01/23 11:12:23;;;;;;;20.10;10.65;;;4.60;99.90;;;;;;5113970;28;22302;-81
2023/01/23 11:14:50;;;;;;;18.63;11.38;;;4.60;99.90;;;;;;5114789;28;20266;-82
2023/01/23 11:17:23;;;;;;;20.48;11.27;;;4.60;99.90;;;;;;5112329;27;20204;-79
2023/01/23 11:19:53;;;;;;;18.00;11.18;;;4.60;99.90;;;;;;5109230;28;20942;-79
2023/01/23 11:22:31;;;;;;;20.38;11.90;;;4.60;99.90;;;;;;5109391;28;20663;-81
2023/01/23 11:24:58;;;;;;;19.48;11.52;;;4.60;99.90;;;;;;5109582;28;20723;-81
2023/01/23 11:27:28;;;;;;;18.58;11.85;;;4.70;99.90;;;;;;5109357;28;20254;-80
2023/01/23 11:30:32;;;;;;;18.80;11.65;;;4.70;99.90;;;;;;5113480;28;20314;-82
2023/01/23 11:33:09;;;;;;;18.45;11.05;;;4.70;99.90;;;;;;5111945;28;20182;-79
2023/01/23 11:36:10;;;;;;;21.52;12.32;;;4.70;99.90;;;;;;5111773;28;20199;-82
2023/01/23 11:38:42;;;;;;;18.95;11.70;;;4.70;99.90;;;;;;5083608;27;21182;-80
2023/01/23 11:41:10;;;;;;;19.35;11.88;;;4.70;99.90;;;;;;5108475;28;21042;-79
2023/01/23 11:43:37;;;;;;;17.33;11.65;;;4.70;99.90;;;;;;5100412;27;20640;-81
2023/01/23 11:46:23;;;;;;;16.45;11.30;;;4.70;99.90;;;;;;5112332;27;20640;-82
2023/01/23 11:49:15;;;;;;;20.58;11.68;;;4.70;99.90;;;;;;5103808;27;20208;-80
2023/01/23 11:52:25;;;;;;;18.92;11.05;;;4.80;99.90;;;;;;5117561;27;20176;-89
2023/01/23 11:54:57;;;;;;;18.23;11.75;;;4.80;99.90;;;;;;5051902;27;20675;-81
2023/01/23 11:57:46;;;;;;;20.77;11.73;;;4.90;99.90;;;;;;5117339;27;20841;-80
2023/01/23 12:00:37;;;;;;;20.70;12.07;;;4.90;99.90;;;;;;5105124;27;20200;-81
2023/01/23 12:03:31;;;;;;;18.50;11.40;;;5.00;99.90;;;;;;5081567;28;20195;-83
2023/01/23 12:06:33;;;;;;;18.02;11.10;;;5.00;99.90;;;;;;5092418;28;20256;-81
2023/01/23 12:09:15;;;;;;;16.20;10.77;;;5.10;99.90;;;;;;5075965;28;20200;-81
2023/01/23 12:12:15;;;;;;;18.73;10.93;;;5.00;99.90;;;;;;5077763;28;20170;-81
2023/01/23 12:14:46;;;;;;;14.60;9.52;;;5.10;99.90;;;;;;5092062;28;20854;-81
2023/01/23 12:17:25;;;;;;;18.40;10.60;;;5.10;99.90;;;;;;5065447;28;20184;-81
2023/01/23 12:20:00;;;;;;;15.90;10.57;;;5.10;99.90;;;;;;5060855;28;20217;-83
2023/01/23 12:23:02;;;;;;;16.50;10.10;;;5.10;99.90;;;;;;5075527;28;20551;-82
2023/01/23 12:25:39;;;;;;;16.20;10.75;;;5.10;99.90;;;;;;5077525;28;20243;-82
2023/01/23 12:28:31;;;;;;;17.20;11.32;;;5.10;99.90;;;;;;5093447;28;20188;-83
2023/01/23 12:31:21;;;;;;;17.02;10.65;;;5.10;99.90;;;;;;5074019;28;20178;-84
2023/01/23 12:33:53;;;;;;;18.42;10.45;;;5.10;99.90;;;;;;5075881;28;20229;-80
2023/01/23 12:36:50;;;;;;;17.25;10.77;;;5.10;99.90;;;;;;5074724;28;20591;-82
2023/01/23 12:39:21;;;;;;;16.83;11.30;;;5.10;99.90;;;;;;5076946;28;20294;-83
2023/01/23 12:42:02;;;;;;;16.92;11.02;;;5.10;99.90;;;;;;5075052;28;20170;-81
2023/01/23 12:44:42;;;;;;;17.15;11.27;;;5.00;99.90;;;;;;5061850;28;20766;-80
2023/01/23 12:47:12;;;;;;;20.00;10.40;;;5.00;99.90;;;;;;5071526;28;20182;-80
2023/01/23 12:49:47;;;;;;;17.73;10.65;;;5.00;99.90;;;;;;5070823;28;20201;-82
2023/01/23 12:52:32;;;;;;;15.98;9.95;;;5.00;99.90;;;;;;5073524;28;20193;-80
2023/01/23 12:55:17;;;;;;;14.38;9.85;;;5.00;99.90;;;;;;5074954;28;20251;-81
2023/01/23 12:57:43;;;;;;;15.75;9.80;;;5.00;99.90;;;;;;5074898;28;20190;-80
2023/01/23 13:00:36;;;;;;;18.02;9.65;;;5.00;99.90;;;;;;5082379;28;20197;-80
2023/01/23 13:03:18;;;;;;;16.55;9.43;;;5.00;99.90;;;;;;5073064;28;20202;-79
2023/01/23 13:05:59;;;;;;;14.57;9.55;;;5.00;99.90;;;;;;5072512;28;20208;-82
2023/01/23 13:08:43;;;;;;;13.63;9.07;;;5.00;99.90;;;;;;5086523;28;20261;-80
2023/01/23 13:14:29;;;;;;;10.68;7.75;;;5.00;99.90;;;;;;5076170;28;20760;-80